createdAt,value
2023-02-02T00:00:43.912Z,53.25
2023-02-02T00:03:13.873Z,54.22
2023-02-02T00:05:52.348Z,55.05
2023-02-02T00:10:52.439Z,57.08
2023-02-02T00:13:22.364Z,54.67
2023-02-02T00:15:52.043Z,56.10
2023-02-02T00:18:21.979Z,55.35
2023-02-02T00:20:51.986Z,54.08
2023-02-02T00:23:21.650Z,57.78
2023-02-02T00:25:52.958Z,56.72
2023-02-02T00:28:22.672Z,54.47
2023-02-02T00:30:52.433Z,54.25
2023-02-02T00:33:22.348Z,57.30
2023-02-02T00:35:54.950Z,54.38
2023-02-02T00:38:25.889Z,55.70
2023-02-02T00:40:55.607Z,56.85
2023-02-02T00:43:25.713Z,56.33
2023-02-02T00:45:55.919Z,56.67
2023-02-02T00:48:27.636Z,58.10
2023-02-02T00:50:57.691Z,57.92
2023-02-02T00:53:27.442Z,57.03
2023-02-02T00:55:57.264Z,57.17
2023-02-02T00:58:27.161Z,57.53
2023-02-02T01:00:57.001Z,56.33
2023-02-02T01:03:26.936Z,57.72
2023-02-02T01:05:56.700Z,55.80
2023-02-02T01:08:26.448Z,59.05
2023-02-02T01:10:56.150Z,57.45
2023-02-02T01:13:25.944Z,54.85
2023-02-02T01:15:59.694Z,56.20
2023-02-02T01:18:30.482Z,51.95
2023-02-02T01:21:02.727Z,55.88
2023-02-02T01:23:32.950Z,55.75
2023-02-02T01:26:04.673Z,56.92
2023-02-02T01:28:34.483Z,58.83
2023-02-02T01:31:10.149Z,56.50
2023-02-02T01:33:40.601Z,55.55
2023-02-02T01:36:15.688Z,54.10
2023-02-02T01:38:45.739Z,54.85
2023-02-02T01:41:18.497Z,54.28
2023-02-02T01:43:58.180Z,55.47
2023-02-02T01:46:32.676Z,54.20
2023-02-02T01:49:21.076Z,55.30
2023-02-02T01:51:57.357Z,54.33
2023-02-02T01:54:37.541Z,53.67
2023-02-02T01:57:17.659Z,55.42
2023-02-02T01:59:49.516Z,54.05
2023-02-02T02:02:19.882Z,53.17
2023-02-02T02:04:52.922Z,53.53
2023-02-02T02:07:22.718Z,56.47
2023-02-02T02:09:52.527Z,52.08
2023-02-02T02:12:22.528Z,55.33
2023-02-02T02:15:13.278Z,55.40
2023-02-02T02:18:15.949Z,54.53
2023-02-02T02:21:44.363Z,56.78
2023-02-02T02:25:09.299Z,53.00
2023-02-02T02:28:15.537Z,52.92
2023-02-02T02:31:24.523Z,53.28
2023-02-02T02:34:20.981Z,54.58
2023-02-02T02:36:59.067Z,52.03
2023-02-02T02:39:52.563Z,54.72
2023-02-02T02:42:27.901Z,53.17
2023-02-02T02:45:02.120Z,53.60
2023-02-02T02:47:33.791Z,54.38
2023-02-02T02:50:03.730Z,53.30
2023-02-02T02:52:34.654Z,52.72
2023-02-02T02:55:07.214Z,50.85
2023-02-02T02:57:56.448Z,52.45
2023-02-02T03:00:50.764Z,52.28
2023-02-02T03:03:55.264Z,52.40
2023-02-02T03:06:44.674Z,52.70
2023-02-02T03:09:23.563Z,48.45
2023-02-02T03:11:53.273Z,51.88
2023-02-02T03:14:23.192Z,51.33
2023-02-02T03:16:54.928Z,49.65
2023-02-02T03:19:24.958Z,47.72
2023-02-02T03:21:54.688Z,48.35
2023-02-02T03:24:24.657Z,47.40
2023-02-02T03:26:54.712Z,49.40
2023-02-02T03:29:24.671Z,49.10
2023-02-02T03:31:54.746Z,49.47
2023-02-02T03:34:24.501Z,46.85
2023-02-02T03:36:55.138Z,46.63
2023-02-02T03:39:25.108Z,46.08
2023-02-02T03:41:55.045Z,47.33
2023-02-02T03:44:24.864Z,47.25
2023-02-02T03:46:58.004Z,47.40
2023-02-02T03:49:28.030Z,46.35
2023-02-02T03:51:57.935Z,47.33
2023-02-02T03:54:27.797Z,46.17
2023-02-02T03:56:57.698Z,46.83
2023-02-02T03:59:27.783Z,45.47
2023-02-02T04:01:57.669Z,46.05
2023-02-02T04:04:27.518Z,45.80
2023-02-02T04:06:57.771Z,46.03
2023-02-02T04:09:28.199Z,42.78
2023-02-02T04:11:57.877Z,46.30
2023-02-02T04:14:27.726Z,43.88
2023-02-02T04:16:57.649Z,43.20
2023-02-02T04:19:27.390Z,43.25
2023-02-02T04:21:57.232Z,42.47
2023-02-02T04:24:26.895Z,44.05
2023-02-02T04:26:56.624Z,44.03
2023-02-02T04:29:28.025Z,42.22
2023-02-02T04:31:57.987Z,42.83
2023-02-02T04:34:27.798Z,40.47
2023-02-02T04:36:58.239Z,41.75
2023-02-02T04:39:28.147Z,41.72
2023-02-02T04:41:58.020Z,41.08
2023-02-02T04:44:27.875Z,41.92
2023-02-02T04:46:57.713Z,42.17
2023-02-02T04:49:27.486Z,40.00
2023-02-02T04:51:57.723Z,38.42
2023-02-02T04:54:27.309Z,40.90
2023-02-02T04:56:57.242Z,36.53
2023-02-02T04:59:27.201Z,39.22
2023-02-02T05:01:56.867Z,37.67
2023-02-02T05:04:26.696Z,41.80
2023-02-02T05:06:56.764Z,38.30
2023-02-02T05:09:26.613Z,37.63
2023-02-02T05:11:56.585Z,35.72
2023-02-02T05:14:26.522Z,38.45
2023-02-02T05:16:56.418Z,38.22
2023-02-02T05:19:26.448Z,38.60
2023-02-02T05:21:56.651Z,37.13
2023-02-02T05:24:26.451Z,37.85
2023-02-02T05:27:00.263Z,38.55
2023-02-02T05:29:31.612Z,37.10
2023-02-02T05:32:01.540Z,34.83
2023-02-02T05:34:31.487Z,38.38
2023-02-02T05:37:01.952Z,34.42
2023-02-02T05:39:31.902Z,34.17
2023-02-02T05:42:01.715Z,31.13
2023-02-02T05:44:31.467Z,29.90
2023-02-02T05:47:01.209Z,31.40
2023-02-02T05:49:31.189Z,30.85
2023-02-02T05:52:01.457Z,34.03
2023-02-02T05:54:31.351Z,34.20
2023-02-02T05:57:03.127Z,32.88
2023-02-02T05:59:32.964Z,32.55
2023-02-02T06:02:02.810Z,31.35
2023-02-02T06:04:32.870Z,32.40
2023-02-02T06:07:02.711Z,32.45
2023-02-02T06:09:32.521Z,31.98
2023-02-02T06:12:02.258Z,32.95
2023-02-02T06:14:32.142Z,31.45
2023-02-02T06:17:02.024Z,35.50
2023-02-02T06:19:31.830Z,37.72
2023-02-02T06:22:01.580Z,35.63
2023-02-02T06:24:31.402Z,36.88
2023-02-02T06:27:01.333Z,37.50
2023-02-02T06:29:31.206Z,37.45
2023-02-02T06:32:01.171Z,37.15
2023-02-02T06:34:31.234Z,37.85
2023-02-02T06:37:01.089Z,38.10
2023-02-02T06:39:31.333Z,38.30
2023-02-02T06:42:11.869Z,36.65
2023-02-02T06:44:49.973Z,36.20
2023-02-02T06:47:19.852Z,34.83
2023-02-02T06:49:49.711Z,34.08
2023-02-02T06:52:19.791Z,31.52
2023-02-02T06:54:49.743Z,31.35
2023-02-02T06:57:19.467Z,33.03
2023-02-02T06:59:49.246Z,32.92
2023-02-02T07:02:19.202Z,32.20
2023-02-02T07:04:48.941Z,32.20
2023-02-02T07:07:18.866Z,32.40
2023-02-02T07:09:48.807Z,31.20
2023-02-02T07:12:29.170Z,30.55
2023-02-02T07:15:01.359Z,30.42
2023-02-02T07:17:31.363Z,31.23
2023-02-02T07:20:01.220Z,27.90
2023-02-02T07:22:31.054Z,28.42
2023-02-02T07:25:00.881Z,27.60
2023-02-02T07:27:30.821Z,28.27
2023-02-02T07:30:00.921Z,27.58
2023-02-02T07:32:30.735Z,26.23
2023-02-02T07:35:00.587Z,26.17
2023-02-02T07:37:30.461Z,27.02
2023-02-02T07:40:00.810Z,26.90
2023-02-02T07:42:30.613Z,26.30
2023-02-02T07:45:27.058Z,26.52
2023-02-02T07:47:51.260Z,28.42
2023-02-02T07:50:21.409Z,26.90
2023-02-02T07:52:51.364Z,26.92
2023-02-02T07:55:21.961Z,27.58
2023-02-02T07:57:53.899Z,25.67
2023-02-02T08:00:24.631Z,25.55
2023-02-02T08:02:55.173Z,25.65
2023-02-02T08:05:25.404Z,24.65
2023-02-02T08:07:55.635Z,25.00
2023-02-02T08:10:25.468Z,26.95
2023-02-02T08:12:55.235Z,25.10
2023-02-02T08:15:25.507Z,26.63
2023-02-02T08:17:55.499Z,26.13
2023-02-02T08:20:25.223Z,24.90
2023-02-02T08:22:55.094Z,26.15
2023-02-02T08:25:25.067Z,25.52
2023-02-02T08:28:03.215Z,25.17
2023-02-02T08:30:33.050Z,25.88
2023-02-02T08:33:02.816Z,25.33
2023-02-02T08:35:32.819Z,23.58
2023-02-02T08:38:07.062Z,25.02
2023-02-02T08:40:37.477Z,24.80
2023-02-02T08:43:08.471Z,25.08
2023-02-02T08:46:03.983Z,24.65
2023-02-02T08:48:34.451Z,23.23
2023-02-02T08:51:05.662Z,24.83
2023-02-02T08:53:36.608Z,23.73
2023-02-02T08:56:18.114Z,23.55
2023-02-02T08:58:53.390Z,25.50
2023-02-02T09:01:30.078Z,23.92
2023-02-02T09:04:04.353Z,24.15
2023-02-02T09:06:40.065Z,25.30
2023-02-02T09:09:13.120Z,24.63
2023-02-02T09:11:43.979Z,24.67
2023-02-02T09:14:15.705Z,25.48
2023-02-02T09:16:45.637Z,24.73
2023-02-02T09:19:15.583Z,23.13
2023-02-02T09:21:45.642Z,24.40
2023-02-02T09:24:16.538Z,23.73
2023-02-02T09:26:47.285Z,24.30
2023-02-02T09:29:23.029Z,24.85
2023-02-02T09:31:52.954Z,24.70
2023-02-02T09:34:22.867Z,24.38
2023-02-02T09:36:53.587Z,25.33
2023-02-02T09:39:23.438Z,25.10
2023-02-02T09:42:22.863Z,26.90
2023-02-02T09:45:01.606Z,24.63
2023-02-02T09:47:54.016Z,27.63
2023-02-02T09:50:45.619Z,28.30
2023-02-02T09:53:53.016Z,28.38
2023-02-02T09:56:40.344Z,29.02
2023-02-02T09:59:21.826Z,29.20
2023-02-02T10:01:58.219Z,29.00
2023-02-02T10:04:41.144Z,27.40
2023-02-02T10:07:21.060Z,28.10
2023-02-02T10:10:05.138Z,28.13
2023-02-02T10:12:49.449Z,28.70
2023-02-02T10:15:45.031Z,28.48
2023-02-02T10:18:30.482Z,29.70
2023-02-02T10:21:03.572Z,27.80
2023-02-02T10:23:43.387Z,29.77
2023-02-02T10:26:40.273Z,27.95
2023-02-02T10:29:49.594Z,29.00
2023-02-02T10:32:49.193Z,28.83
2023-02-02T10:35:42.077Z,29.38
2023-02-02T10:38:46.655Z,29.15
2023-02-02T10:41:45.654Z,29.88
2023-02-02T10:44:45.296Z,29.40
2023-02-02T10:47:25.239Z,29.30
2023-02-02T10:50:19.711Z,30.05
2023-02-02T10:53:02.414Z,29.40
2023-02-02T10:55:58.370Z,30.63
2023-02-02T10:58:41.273Z,31.75
2023-02-02T11:01:13.277Z,29.50
2023-02-02T11:03:43.105Z,32.20
2023-02-02T11:06:36.663Z,32.38
2023-02-02T11:09:06.771Z,32.35
2023-02-02T11:11:43.149Z,34.05
2023-02-02T11:14:45.134Z,31.42
2023-02-02T11:17:31.841Z,31.33
2023-02-02T11:20:01.852Z,30.50
2023-02-02T11:22:37.744Z,33.58
2023-02-02T11:25:25.720Z,32.65
2023-02-02T11:27:55.894Z,34.88
2023-02-02T11:30:37.207Z,32.90
2023-02-02T11:33:37.986Z,34.17
2023-02-02T11:36:22.115Z,33.40
2023-02-02T11:39:11.457Z,33.97
2023-02-02T11:41:41.388Z,32.90
2023-02-02T11:44:27.545Z,35.50
2023-02-02T11:46:59.229Z,33.97
2023-02-02T11:49:29.296Z,34.50
2023-02-02T11:52:02.881Z,37.53
2023-02-02T11:54:35.751Z,43.65
2023-02-02T11:57:12.444Z,42.13
2023-02-02T11:59:47.455Z,40.03
2023-02-02T12:02:34.209Z,38.28
2023-02-02T12:05:39.201Z,36.72
2023-02-02T12:08:14.382Z,36.58
2023-02-02T12:11:04.927Z,37.67
2023-02-02T12:13:53.899Z,34.30
2023-02-02T12:16:57.390Z,36.03
2023-02-02T12:20:06.403Z,36.10
2023-02-02T12:23:03.220Z,38.05
2023-02-02T12:26:00.858Z,36.27
2023-02-02T12:29:06.255Z,38.28
2023-02-02T12:32:11.770Z,41.05
2023-02-02T12:35:04.056Z,40.45
2023-02-02T12:37:58.299Z,39.83
2023-02-02T12:40:54.142Z,38.70
2023-02-02T12:43:48.359Z,42.42
2023-02-02T12:46:34.546Z,40.90
2023-02-02T12:49:36.391Z,41.35
2023-02-02T12:52:39.427Z,40.08
2023-02-02T12:55:39.847Z,40.97
2023-02-02T12:58:41.539Z,41.30
2023-02-02T13:01:42.271Z,42.45
2023-02-02T13:04:51.399Z,39.78
2023-02-02T13:07:34.953Z,42.28
2023-02-02T13:10:34.153Z,44.90
2023-02-02T13:13:21.701Z,39.78
2023-02-02T13:15:57.467Z,40.70
2023-02-02T13:18:34.189Z,40.60
2023-02-02T13:21:08.493Z,42.85
2023-02-02T13:23:44.759Z,42.75
2023-02-02T13:26:27.789Z,42.67
2023-02-02T13:29:47.431Z,41.63
2023-02-02T13:32:38.308Z,41.78
2023-02-02T13:35:33.749Z,41.10
2023-02-02T13:38:36.611Z,42.97
2023-02-02T13:41:11.111Z,41.60
2023-02-02T13:44:14.971Z,43.05
2023-02-02T13:46:57.494Z,42.60
